Details From LOWI - Innsbruck Kranebitten
To UDYZ - Zvartnots
Flight Number -
Tags Generated
Created
Modified
Stats Distance 1,484 nm / 2,749 km
Max Altitude 0 ft / 0 m
Waypoints 7
Social Downloads 0
Likes 0
Share VATSIM

Download

Looking for another format? Having issues loading an existing format? Contact us
Advertisement - Login to hide

Notes

Generated

Route

LOWI NALOX NEPOT TLC MAPUT ZVR UDYZ

ID Type Via Altitude Latitude Longitude Leg Dist Tot Dist Heading (true) Name
O LOWI APT - 0 ft / 0 m 47.25883˚ 11.33091˚ - 0 nm - -
NALOX FIX - 0 ft / 0 m 46.86959˚ 16.82007˚ 225 nm 225 nm 94° / 98° -
NEPOT FIX - 0 ft / 0 m 45.96030˚ 23.08808˚ 265 nm 490 nm 100° / 104° -
TLC NDB - 0 ft / 0 m 44.99257˚ 28.73636˚ 244 nm 735 nm 102° / 106° TULCEA NDB
MAPUT FIX - 0 ft / 0 m 43.56638˚ 34.39514˚ 257 nm 993 nm 107° / 111° -
ZVR VOR - 0 ft / 0 m 40.14719˚ 44.36696˚ 490 nm 1484 nm 111° / 118° YEREVAN VOR-DME
O UDYZ APT - 0 ft / 0 m 40.14715˚ 44.37329˚ 0 nm 1484 nm 90° / 90° -

Altitude Profile

Advertisement - Login to hide

Weather


0- 5 10 15 20 25 30 35+ Temperature / ° C

Clouds and Precipitation
Forecast for 2017-12-14 18:00 UTC. Updated 2 hours ago

Ground ~20,000 ft ~40,000 ft Winds

LOWI

Details ICAO LOWI (INN)
Name Innsbruck Kranebitten
Region Austria
Timezone Europe/Vienna (UTC+1.0)
Stats Elevation 1,906 ft / 581 m (AMSL)
Location 47.260226° 11.343967°
Runways 1
Magnetic Variation 3.019° E

METAR

LOWI 141650Z 12002KT 2000 SN SCT003 BKN007 00/00 Q1003 R08/19//95 TEMPO 1200 SHSN VV004

Decode

TAF

TAF LOWI 141115Z 1412/1512 08005KT 7000 -SN SCT004 BKN050 TX04/1512Z TNM00/1423Z TEMPO 1412/1505 27012G25KT 1200 SHSN VV004 BECMG 1506/1508 9999 NSW FEW020

Decode

Departure Runways

ID Width Length Bearing (true) Bearing (mag) Surface Threshold Offset Overrun Length
08 148 ft / 45 m 6,545 ft / 1,995 m 81.02° 78.00° Asphalt 338 ft / 103 m 0 ft / 0 m
26 148 ft / 45 m 6,545 ft / 1,995 m 261.04° 258.02° Asphalt 0 ft / 0 m 0 ft / 0 m

UDYZ

Details ICAO UDYZ (EVN)
Name ZVARTNOTS
Region Armenia
Timezone Asia/Yerevan (UTC+4.0)
Stats Elevation 2,838 ft / 865 m (AMSL)
Location 40.147271° 44.395880°
Runways 1
Magnetic Variation 6.201° E

METAR

UDYZ 141700Z 35001KT 2300 BR NSC M02/M04 Q1021 R09/000070 NOSIG

Decode

TAF

TAF UDYZ 141102Z 1412/1512 VRB04KT 6000 NSC TEMPO 1415/1418 2300 BR TEMPO 1418/1506 1000 BR

Decode

Destination Runways

ID Width Length Bearing (true) Bearing (mag) Surface Threshold Offset Overrun Length
09 184 ft / 56 m 12,601 ft / 3,841 m 89.59° 83.39° Asphalt 0 ft / 0 m 0 ft / 0 m
27 184 ft / 56 m 12,601 ft / 3,841 m 269.62° 263.42° Asphalt 0 ft / 0 m 0 ft / 0 m

Approach Navaids

Runway Type Ident Frequency Range Bearing (true) Bearing (mag) Slope Elevation
09 Localiser IZR 108.10 MHz 18 nm / 33 km 89.83° 83.63° - 2,838 ft / 865 m (AMSL)
09 Glidescope IZR 108.10 MHz 10 nm / 19 km 89.61° 83.41° 2.67° 2,838 ft / 865 m (AMSL)

Popular Alternatives